Friday, January 19, 2018, 10:33 PM EST
Back to Local

KORE, Orange, Orange Municipal Airport

Location: Orange, MA, United States Lat: 42.572
Local Time: 10:33 PM EST ( 3:33 GMT) Lon: -72.278
Time Zone: US/Eastern Elev: 554 ft

Show me the last for .
Show Decoded

2018-01-19 21:52 METAR KORE 200252Z AUTO 00000KT 9SM CLR M06/M07 A2989 RMK AO2 SLP132 T10611072
                 58011 =
2018-01-19 20:52 METAR KORE 200152Z AUTO 19004KT 10SM CLR M04/M06 A2992 RMK AO2 SLP140 T10391061
                 =
2018-01-19 19:52 METAR KORE 200052Z AUTO 21004KT 10SM CLR M03/M07 A2992 RMK AO2 SLP143 T10331067
                 =
2018-01-19 18:52 METAR KORE 192352Z AUTO 00000KT 10SM OVC035 M03/M06 A2993 RMK AO2 SLP144
                 T10281061 10000 21028 53000 =
2018-01-19 17:52 METAR KORE 192252Z AUTO 00000KT 10SM OVC035 M02/M07 A2992 RMK AO2 SLP140
                 T10171067 =
2018-01-19 16:52 METAR KORE 192152Z AUTO 00000KT 10SM OVC038 M01/M07 A2992 RMK AO2 SLP141
                 T10111067 =
2018-01-19 15:52 METAR KORE 192052Z AUTO VRB05KT 10SM OVC037 M01/M07 A2993 RMK AO2 SLP142
                 T10111067 53005 =
2018-01-19 14:52 METAR KORE 191952Z AUTO 29005KT 10SM OVC034 M01/M07 A2992 RMK AO2 SLP139
                 T10061072 =
2018-01-19 13:52 METAR KORE 191852Z AUTO 29009KT 10SM BKN037 M01/M07 A2991 RMK AO2 SLP137
                 T10061072 =
2018-01-19 12:52 METAR KORE 191752Z AUTO 25010G14KT 10SM SCT036 M01/M08 A2991 RMK AO2 SLP137
                 T10061083 10000 21100 58023 =
2018-01-19 11:52 METAR KORE 191652Z AUTO 26010KT 10SM CLR M01/M08 A2994 RMK AO2 SLP147 T10111083
                 =
2018-01-19 10:52 METAR KORE 191552Z AUTO 00000KT 10SM SCT032 M03/M08 A2997 RMK AO2 SLP156
                 T10331078 =
2018-01-19 10:04 METAR KORE 191504Z AUTO 00000KT 8SM OVC030 M05/M08 A2997 RMK AO2 T10501078 =
2018-01-19 09:52 METAR KORE 191452Z AUTO 00000KT 8SM OVC029 M06/M08 A2998 RMK AO2 SLP162
                 T10561078 51009 =
2018-01-19 08:52 METAR KORE 191352Z AUTO 00000KT 5SM BR OVC028 M08/M09 A2997 RMK AO2 SLP161
                 T10781089 =
2018-01-19 08:34 METAR KORE 191334Z AUTO 00000KT 5SM BR BKN029 OVC037 M09/M09 A2997 RMK AO2
                 T10891089 =
2018-01-19 07:52 METAR KORE 191252Z AUTO 00000KT 4SM BR CLR M09/M09 A2996 RMK AO2 SLP157
                 T10941094 =
2018-01-19 06:52 METAR KORE 191152Z AUTO 08003KT 9SM BKN046 M07/M09 A2995 RMK AO2 SLP153
                 T10721089 11061 21083 53002 =
2018-01-19 05:52 METAR KORE 191052Z AUTO 00000KT 8SM BKN039 M07/M09 A2993 RMK AO2 SLP145
                 T10721089 =
2018-01-19 04:52 METAR KORE 190952Z AUTO 00000KT 10SM OVC120 M07/M08 A2994 RMK AO2 SLP149
                 T10671083 =
2018-01-19 03:52 METAR KORE 190852Z AUTO 27007KT 10SM SCT120 M06/M09 A2995 RMK AO2 SLP150
                 T10611089 55001 =
2018-01-19 02:52 METAR KORE 190752Z AUTO 31003KT 10SM CLR M07/M09 A2994 RMK AO2 SLP147 T10671094
                 =
2018-01-19 01:52 METAR KORE 190652Z AUTO 28005KT 10SM CLR M07/M10 A2995 RMK AO2 SLP150 T10671100
                 =
2018-01-19 00:52 METAR KORE 190552Z AUTO 30005KT 10SM SCT032 M07/M10 A2995 RMK AO2 SLP152
                 T10671100 11056 21089 56007 =
2018-01-18 23:52 METAR KORE 190452Z AUTO 28006KT 10SM CLR M06/M10 A2996 RMK AO2 SLP154 T10611100
                 410331167 =
2018-01-18 22:52 METAR KORE 190352Z AUTO VRB06KT 10SM SCT034 M06/M09 A2996 RMK AO2 SLP156
                 T10611094 =

Support USWX by starting your Amazon purchase here.